Sant Julià de Vilatorta





Hora UTC 23:15
Temperatura 7.1 ºC
Humitat 90.9 %
Pressió 1014.6 hPa
Pluja 0.2 mm
Velocitat vent 4.6 km/h
Direcció vent NNE
Radiació solar 0.4 W/m²

Dades diàries 2020-03-31



Hora UTC (hivern +1h; estiu +2h)
Temperatura (ºC) Humitat (%) Pressió (hPa) Velocitat vent (km/h) Precipitació (mm) Radiació solar (W/m²)
Hora UTC Aire Humitat Pressió Vel. Dir. Vel. Max Dir. Intent. màx 5 min. Rad. Sol.
00:05 4.8 93.6 1012.9 0.6 NE 1.5 NNW 0.0 0.2
00:10 4.8 93.5 1012.9 1.6 NE 3.6 SSW 0.0 0.2
00:15 4.9 93.7 1013.0 3.0 N 3.9 SSW 0.0 0.2
00:20 4.9 93.8 1013.0 3.0 NNE 4.8 SW 0.0 0.2
00:25 4.9 93.8 1013.0 1.7 NE 3.6 NNW 0.0 0.1
00:30 4.9 93.7 1013.0 0.9 ENE 1.7 SSW 0.0 0.1
00:35 4.9 93.7 1013.0 1.7 NNE 2.3 SSW 0.0 0.2
00:40 4.9 93.6 1012.9 1.4 NNE 2.9 W 0.0 0.2
00:45 4.9 93.5 1012.9 1.1 NNE 2.1 SSW 0.0 0.0
00:50 4.9 93.5 1012.8 1.2 NNE 1.9 W 0.0 0.0
00:55 4.9 93.4 1012.8 0.8 NE 1.5 WSW 0.0 0.0
01:00 4.9 93.4 1012.7 0.6 NE 1.0 E 0.0 0.0
01:05 4.9 93.3 1012.7 0.7 NNE 1.5 NW 0.0 0.0
01:10 4.9 93.2 1012.7 2.4 NNE 3.7 WNW 0.0 0.0
01:15 5.0 93.3 1012.6 2.1 NNE 3.7 W 0.0 0.0
01:20 5.0 93.3 1012.6 1.6 NE 2.9 W 0.0 0.0
01:25 5.0 93.4 1012.5 2.4 ENE 6.5 W 0.0 0.0
01:30 5.0 93.6 1012.4 1.4 ENE 3.1 ENE 0.0 0.0
01:35 5.0 93.6 1012.4 0.9 ENE 2.2 SSW 0.0 0.0
01:40 5.0 93.6 1012.3 2.4 NE 7.3 NNE 0.0 0.1
01:45 5.1 93.4 1012.2 4.3 NE 12.6 E 0.0 0.3
01:50 5.1 92.9 1012.2 2.7 ENE 5.7 ESE 0.1 0.4
01:55 5.2 92.5 1012.2 3.0 NE 6.7 ENE 0.0 0.5
02:00 5.3 92.6 1012.3 2.7 NNE 4.5 SW 0.0 0.2
02:05 5.3 92.9 1012.2 2.8 E 9.1 ENE 0.0 0.2
02:10 5.3 92.5 1012.2 4.3 NE 8.1 ENE 0.0 0.6
02:15 5.4 92.5 1012.1 2.7 ENE 6.9 SE 0.0 0.5
02:20 5.3 92.2 1012.2 2.6 ENE 6.0 SE 0.0 0.6
02:25 5.4 91.5 1012.2 1.8 E 5.4 ENE 0.0 0.6
02:30 5.4 90.7 1012.3 2.9 NNE 6.2 ENE 0.0 0.6
02:35 5.4 90.0 1012.2 4.1 NE 8.9 ESE 0.0 0.6
02:40 5.4 89.6 1012.2 2.3 ENE 5.6 S 0.0 0.6
02:45 5.5 89.1 1012.2 3.7 ENE 8.9 NE 0.0 0.6
02:50 5.5 88.9 1012.2 3.8 NE 8.2 SSE 0.0 0.6
02:55 5.5 88.3 1012.2 4.6 ENE 10.9 S 0.0 0.7
03:00 5.5 87.8 1012.2 4.0 NE 10.8 E 0.0 0.6
03:05 5.5 87.5 1012.2 4.5 NE 12.2 E 0.0 0.5
03:10 5.5 87.3 1012.2 4.5 NE 13.7 ENE 0.0 0.6
03:15 5.4 87.0 1012.1 4.9 NE 11.7 ESE 0.0 0.5
03:20 5.4 86.7 1012.1 3.7 NNE 7.8 E 0.0 0.5
03:25 5.4 86.5 1012.1 3.2 NE 9.8 E 0.0 0.5
03:30 5.4 86.2 1012.1 5.9 NNE 15.5 E 0.0 0.6
03:35 5.4 86.0 1012.0 4.8 NE 12.0 NE 0.0 0.6
03:40 5.4 85.6 1012.1 5.1 NNE 12.2 ESE 0.0 0.6
03:45 5.4 85.3 1012.1 5.7 NE 13.1 E 0.0 0.5
03:50 5.4 85.1 1012.2 5.5 NE 14.6 ENE 0.0 0.5
03:55 5.4 85.2 1012.3 2.6 ENE 7.1 NE 0.0 0.3
04:00 5.4 85.3 1012.3 2.7 NNE 4.4 ENE 0.0 0.3
04:05 5.4 85.6 1012.4 2.7 ENE 4.8 SE 0.0 0.3
04:10 5.4 86.0 1012.4 1.8 NE 3.6 SSW 0.0 0.3
04:15 5.4 86.3 1012.4 2.6 NE 4.6 WNW 0.0 0.2
04:20 5.4 86.4 1012.4 3.0 NNE 4.2 SSE 0.0 0.2
04:25 5.4 86.4 1012.4 2.1 NE 5.0 ESE 0.0 0.2
04:30 5.4 86.2 1012.4 4.0 NNE 9.0 E 0.0 0.3
04:35 5.4 86.1 1012.4 3.0 NNE 8.0 NE 0.0 0.1
04:40 5.4 86.2 1012.4 2.1 NE 6.2 NE 0.0 0.0
04:45 5.3 86.5 1012.4 3.2 NNE 9.0 NE 0.0 0.0
04:50 5.3 86.4 1012.3 4.5 NNE 10.0 NE 0.0 0.1
04:55 5.3 86.4 1012.3 2.4 NE 7.8 NNE 0.0 0.1
05:00 5.2 86.0 1012.2 6.2 NNE 13.2 ESE 0.0 0.3
05:05 5.2 85.8 1012.1 3.8 NNE 11.0 NE 0.0 0.2
05:10 5.1 86.0 1012.1 4.3 NNE 10.7 ENE 0.0 0.2
05:15 5.1 85.9 1012.1 3.9 NE 8.2 ENE 0.0 0.3
05:20 5.1 85.8 1012.1 4.1 NE 14.0 ESE 0.0 0.3
05:25 5.1 85.8 1012.2 4.4 NE 11.4 ESE 0.0 0.6
05:30 5.1 85.8 1012.2 3.4 NE 9.6 E 0.0 0.8
05:35 5.2 85.9 1012.3 3.6 NE 8.2 ESE 0.0 1.1
05:40 5.2 85.8 1012.4 3.2 NNE 5.9 ESE 0.0 1.6
05:45 5.2 85.7 1012.5 4.5 NNE 8.6 NE 0.0 3.6
05:50 5.3 85.6 1012.6 3.6 NNE 6.9 ENE 0.0 6.1
05:55 5.3 85.6 1012.6 2.2 NNE 4.7 ENE 0.0 12.7
06:00 5.3 85.7 1012.8 2.0 NE 4.5 ESE 0.0 25.8
06:05 5.3 86.0 1013.0 1.7 NE 3.6 S 0.0 24.6
06:10 5.4 86.5 1013.1 1.9 NNE 4.1 SSW 0.0 23.4
06:15 5.5 87.1 1013.2 2.9 NNE 5.3 SW 0.0 23.2
06:20 5.5 86.8 1013.2 1.9 NNE 4.1 SSW 0.0 39.5
06:25 5.5 86.7 1013.2 1.8 NE 3.2 ENE 0.0 53.9
06:30 5.5 86.6 1013.1 2.7 NNE 5.9 NE 0.0 60.5
06:35 5.6 87.0 1013.1 3.6 NNE 7.7 NE 0.0 69.5
06:40 5.7 86.8 1013.2 2.0 ENE 5.3 NE 0.0 73.8
06:45 5.8 86.5 1013.0 4.0 NNE 9.8 NE 0.0 80.6
06:50 5.8 85.9 1013.0 5.3 NNE 10.2 NNE 0.0 81.7
06:55 5.9 85.6 1013.0 4.6 NNE 10.0 NE 0.0 82.2
07:00 6.0 85.4 1013.0 5.4 NNE 10.9 NNE 0.0 85.9
07:05 6.1 85.5 1013.0 4.4 NNE 9.8 NE 0.0 99.6
07:10 6.2 85.3 1012.9 5.1 NNE 11.3 ESE 0.0 118.8
07:15 6.2 84.8 1012.9 7.1 NNE 14.9 NE 0.0 129.8
07:20 6.3 84.7 1012.9 5.9 NNE 10.3 NNE 0.0 136.3
07:25 6.4 84.6 1012.9 5.5 NNE 11.7 NNE 0.0 137.8
07:30 6.4 84.4 1012.9 4.4 NNE 8.1 NNE 0.0 132.4
07:35 6.5 83.9 1012.9 3.3 NE 7.2 E 0.0 131.0
07:40 6.7 84.5 1012.9 3.0 NE 11.5 NE 0.0 142.0
07:45 6.8 83.7 1013.0 4.6 NE 12.3 ENE 0.0 137.3
07:50 6.9 82.9 1013.0 6.3 NNE 12.2 ENE 0.0 147.1
07:55 7.0 83.1 1013.0 2.6 NE 8.4 ENE 0.0 167.2
08:00 7.2 83.1 1013.0 4.1 ENE 11.5 NNE 0.0 169.1
08:05 7.3 82.1 1013.1 7.4 NNE 16.2 NE 0.0 172.0
08:10 7.4 81.4 1013.1 4.3 NNE 9.3 ENE 0.0 167.8
08:15 7.5 81.4 1013.1 4.7 NE 13.6 NE 0.0 176.7
08:20 7.6 80.7 1013.1 6.2 NE 15.8 NNE 0.0 193.5
08:25 7.8 80.1 1013.1 7.7 NNE 15.4 NE 0.0 194.6
08:30 7.9 79.4 1013.1 6.4 NNE 12.9 ENE 0.0 244.7
08:35 8.1 79.3 1013.0 3.8 NE 10.4 NE 0.0 211.8
08:40 8.2 79.5 1013.1 3.8 ENE 10.9 E 0.0 187.5
08:45 8.3 78.1 1013.1 6.0 NNE 11.2 E 0.0 185.1
08:50 8.3 78.2 1013.1 3.8 NE 10.4 NNE 0.0 170.3
08:55 8.3 78.0 1013.1 4.4 NNE 9.0 NE 0.0 122.5
09:00 8.2 78.4 1013.2 2.9 NE 7.8 E 0.0 98.0
09:05 8.2 78.6 1013.1 3.3 NE 9.9 NE 0.0 91.4
09:10 8.2 79.1 1013.1 4.1 NE 9.1 NE 0.0 100.2
09:15 8.2 78.8 1013.1 3.3 NNE 7.0 NE 0.0 125.5
09:20 8.2 79.2 1013.1 5.2 NNE 8.5 NE 0.0 128.2
09:25 8.2 79.3 1013.1 3.1 NE 5.4 ESE 0.0 108.8
09:30 8.2 79.5 1013.2 2.9 NNE 5.3 NE 0.0 101.1
09:35 8.2 79.6 1013.2 3.1 NE 6.4 ENE 0.0 100.9
09:40 8.3 79.7 1013.2 3.5 NNE 6.8 NNE 0.0 103.2
09:45 8.3 79.9 1013.2 4.3 NNE 8.6 ENE 0.0 108.6
09:50 8.3 80.1 1013.2 3.6 NNE 8.3 E 0.0 102.8
09:55 8.3 79.9 1013.2 4.7 NNE 9.8 NE 0.0 87.5
10:00 8.2 79.8 1013.3 4.4 NE 11.0 NNE 0.0 91.3
10:05 8.2 79.9 1013.3 5.3 NNE 9.2 NE 0.0 102.2
10:10 8.2 80.0 1013.3 2.3 NE 6.7 NE 0.0 84.7
10:15 8.3 80.6 1013.4 2.3 ENE 5.5 E 0.0 65.1
10:20 8.2 80.1 1013.3 4.7 NNE 10.7 ENE 0.0 60.4
10:25 8.2 80.4 1013.3 6.6 NNE 12.3 N 0.0 73.7
10:30 8.2 81.4 1013.3 4.7 NNE 8.5 N 0.0 87.4
10:35 8.1 80.5 1013.3 7.5 NNE 11.8 N 0.0 104.5
10:40 8.1 80.8 1013.3 4.8 NNE 10.8 N 0.0 115.8
10:45 8.2 80.8 1013.2 6.1 NNE 12.7 NNE 0.0 118.3
10:50 8.2 80.6 1013.2 7.0 NNE 11.7 NNE 0.0 107.4
10:55 8.2 80.4 1013.2 6.1 NNE 10.2 N 0.0 99.9
11:00 8.3 80.3 1013.2 4.0 NNE 7.2 NNE 0.0 95.1
11:05 8.4 80.4 1013.2 2.5 NE 6.8 NNE 0.0 87.9
11:10 8.4 80.3 1013.2 3.7 NNE 8.1 NNE 0.0 88.8
11:15 8.5 80.3 1013.1 4.6 NE 10.8 ENE 0.0 95.4
11:20 8.5 80.2 1013.0 5.1 NNE 7.7 N 0.0 94.9
11:25 8.5 80.6 1013.0 4.3 NNE 8.5 NNE 0.0 102.9
11:30 8.6 81.7 1013.0 2.9 NE 6.2 NNE 0.0 117.9
11:35 8.7 81.5 1012.9 3.8 NE 8.2 NE 0.0 128.2
11:40 8.8 80.7 1012.9 3.4 NE 8.7 NE 0.0 139.7
11:45 8.9 79.6 1013.0 2.9 E 7.0 E 0.0 159.3
11:50 9.0 79.1 1013.0 3.3 NE 7.4 NE 0.1 158.0
11:55 9.1 79.3 1013.0 2.6 ENE 4.9 NNW 0.0 154.9
12:00 9.2 78.7 1013.0 3.0 NE 9.8 E 0.0 165.1
12:05 9.3 78.5 1012.9 5.3 NNE 12.5 E 0.0 184.4
12:10 9.4 78.6 1012.9 4.5 NE 11.6 E 0.0 165.7
12:15 9.5 78.4 1012.9 5.0 NNE 10.8 ENE 0.0 156.8
12:20 9.6 78.3 1012.9 3.3 NE 9.5 E 0.0 144.2
12:25 9.7 77.3 1012.9 6.2 NNE 12.9 E 0.0 119.4
12:30 9.6 76.4 1013.0 5.7 NE 15.8 ENE 0.0 99.6
12:35 9.6 76.5 1013.0 5.1 NE 13.1 E 0.0 88.8
12:40 9.6 76.7 1013.0 3.7 ENE 12.7 ENE 0.0 77.7
12:45 9.5 76.4 1013.0 4.5 NE 14.4 ENE 0.0 72.7
12:50 9.5 76.5 1013.1 5.9 NE 16.0 E 0.0 72.2
12:55 9.5 76.3 1013.1 5.7 NE 12.7 ESE 0.0 73.5
13:00 9.4 76.2 1013.1 8.1 NE 14.9 E 0.0 74.7
13:05 9.4 76.2 1013.0 5.4 NE 15.7 ESE 0.0 77.2
13:10 9.4 76.1 1013.0 4.1 NE 12.7 E 0.0 80.5
13:15 9.4 76.0 1013.1 4.5 NE 11.5 ENE 0.0 79.6
13:20 9.4 76.1 1013.1 6.4 NE 12.3 ENE 0.0 81.3
13:25 9.4 75.8 1013.1 4.7 NE 14.7 E 0.0 83.0
13:30 9.5 75.8 1013.1 3.1 ENE 8.9 E 0.0 91.7
13:35 9.5 76.0 1013.1 3.4 E 9.3 E 0.0 96.1
13:40 9.5 75.9 1013.1 5.5 NE 15.4 E 0.0 93.1
13:45 9.5 75.7 1013.1 4.1 NE 12.9 E 0.0 98.4
13:50 9.6 75.9 1013.1 5.1 NE 14.9 NE 0.0 114.9
13:55 9.6 75.3 1013.0 5.0 NE 14.4 E 0.0 108.3
14:00 9.6 74.9 1013.0 5.8 NE 14.9 ESE 0.0 124.1
14:05 9.7 75.0 1012.9 5.9 NE 19.5 ENE 0.0 147.0
14:10 9.8 74.3 1012.8 6.5 NE 17.8 E 0.0 142.1
14:15 9.8 74.1 1012.8 8.0 NE 22.9 NE 0.0 138.5
14:20 9.8 74.6 1012.7 6.9 NE 17.8 NE 0.0 153.0
14:25 9.8 74.2 1012.8 9.1 NNE 24.9 ENE 0.0 145.7
14:30 9.8 74.3 1012.8 6.5 NE 16.9 E 0.0 135.7
14:35 9.8 74.4 1012.9 5.6 NE 12.4 ENE 0.0 138.4
14:40 9.8 74.7 1012.9 5.5 NE 11.2 E 0.0 134.5
14:45 9.9 74.0 1012.9 4.6 ENE 12.0 NNE 0.0 123.1
14:50 9.9 74.4 1012.9 6.0 NE 15.8 E 0.0 128.1
14:55 9.9 73.5 1012.9 8.3 NE 17.7 SE 0.0 116.3
15:00 9.8 74.1 1012.9 3.0 ENE 8.9 ESE 0.0 106.5
15:05 9.9 74.4 1012.9 3.3 ENE 9.5 NE 0.0 98.9
15:10 9.9 74.9 1012.9 5.2 NE 11.7 ENE 0.0 97.7
15:15 9.9 74.7 1012.9 4.1 NE 12.7 ENE 0.0 114.5
15:20 10.0 75.2 1012.9 5.1 NE 11.3 E 0.0 115.6
15:25 10.0 75.4 1012.9 5.1 ENE 14.0 ENE 0.0 119.1
15:30 10.0 74.6 1012.9 5.5 NE 11.7 ESE 0.0 115.2
15:35 10.0 74.5 1012.9 5.7 NNE 14.9 ESE 0.0 109.4
15:40 10.0 75.9 1012.9 5.9 NE 17.1 NE 0.0 93.4
15:45 9.9 76.6 1012.9 4.3 NE 11.7 ENE 0.0 74.1
15:50 9.8 77.1 1012.9 3.8 ENE 9.7 E 0.0 66.2
15:55 9.7 77.2 1012.9 4.4 NE 11.2 ESE 0.0 64.5
16:00 9.6 77.9 1012.9 5.1 NE 13.1 ENE 0.0 62.9
16:05 9.4 78.1 1012.9 7.0 NNE 14.1 E 0.0 58.9
16:10 9.3 78.7 1012.9 5.0 NE 9.9 NNE 0.0 57.7
16:15 9.2 78.7 1012.9 7.2 NE 18.2 NNE 0.0 53.8
16:20 9.1 78.8 1012.9 7.0 NE 18.4 E 0.0 47.5
16:25 9.0 79.0 1012.9 8.0 NE 20.4 ENE 0.0 42.4
16:30 9.0 78.7 1013.0 7.1 NE 19.4 ENE 0.0 40.0
16:35 9.0 78.8 1013.0 5.8 NE 15.1 NE 0.0 36.0
16:40 8.9 79.4 1013.0 6.3 NE 14.6 E 0.0 33.5
16:45 8.9 79.8 1013.0 4.2 NE 12.6 E 0.0 33.2
16:50 8.8 80.1 1013.1 4.9 NE 13.8 E 0.0 34.4
16:55 8.8 80.6 1013.1 6.0 NE 17.6 ENE 0.0 36.5
17:00 8.8 80.6 1013.2 6.5 NE 15.9 ENE 0.0 33.9
17:05 8.7 80.9 1013.2 7.4 ENE 24.7 ENE 0.0 30.4
17:10 8.7 81.0 1013.2 5.4 NE 12.0 E 0.0 26.3
17:15 8.6 80.5 1013.2 4.5 NE 13.6 ENE 0.0 24.4
17:20 8.6 80.4 1013.3 5.5 NNE 13.0 E 0.0 22.1
17:25 8.6 80.6 1013.3 4.1 ENE 12.5 E 0.0 18.5
17:30 8.5 80.3 1013.3 7.8 NE 24.6 ENE 0.0 15.2
17:35 8.4 80.4 1013.3 7.8 NE 17.5 E 0.0 12.3
17:40 8.4 81.4 1013.3 6.4 NE 22.6 NE 0.0 9.2
17:45 8.3 82.3 1013.4 5.9 NE 12.6 NE 0.0 6.9
17:50 8.2 82.0 1013.4 6.6 NE 16.3 E 0.0 5.3
17:55 8.1 82.3 1013.5 5.8 NE 19.7 ENE 0.0 3.7
18:00 8.1 82.9 1013.5 4.4 ENE 15.0 E 0.0 2.1
18:05 8.0 83.7 1013.6 5.7 NE 13.0 ENE 0.0 1.2
18:10 7.9 84.0 1013.7 5.5 NE 12.0 ENE 0.0 0.8
18:15 7.8 84.2 1013.8 5.3 NE 13.8 E 0.0 0.8
18:20 7.8 84.9 1013.8 4.8 ENE 14.5 ENE 0.0 0.2
18:25 7.7 85.1 1013.8 4.8 ENE 18.8 E 0.0 0.0
18:30 7.6 85.3 1013.9 3.6 NE 14.5 NE 0.0 0.0
18:35 7.5 85.6 1013.9 5.5 NE 11.9 NE 0.0 0.0
18:40 7.5 86.1 1013.9 6.9 NNE 14.7 NE 0.0 0.0
18:45 7.4 86.7 1014.0 5.5 NNE 12.8 E 0.0 0.0
18:50 7.4 87.1 1014.1 5.3 NNE 18.3 NE 0.0 0.0
18:55 7.3 87.5 1014.2 4.2 NE 10.4 NNE 0.0 0.0
19:00 7.3 87.8 1014.3 4.9 NNE 11.4 E 0.0 0.0
19:05 7.3 88.2 1014.3 4.8 NNE 10.5 NE 0.0 0.0
19:10 7.2 88.7 1014.4 6.1 NNE 15.1 NE 0.0 0.0
19:15 7.1 89.2 1014.4 4.7 NNE 9.4 NE 0.0 0.0
19:20 7.1 89.5 1014.5 7.6 NNE 17.7 NE 0.0 0.0
19:25 7.0 89.4 1014.5 6.6 NNE 14.1 NE 0.0 0.1
19:30 7.0 89.4 1014.5 7.3 NNE 18.8 NNE 0.0 0.2
19:35 6.9 89.5 1014.5 8.3 NNE 17.0 NE 0.0 0.2
19:40 6.9 89.7 1014.6 7.5 NNE 15.7 NNE 0.0 0.0
19:45 6.9 89.9 1014.5 7.0 NNE 20.8 NE 0.0 0.2
19:50 6.8 90.0 1014.6 7.5 NNE 14.2 NE 0.0 0.2
19:55 6.8 90.1 1014.6 6.0 NNE 15.3 NE 0.0 0.1
20:00 6.8 90.5 1014.6 7.4 NNE 16.7 NNE 0.0 0.0
20:05 6.8 90.7 1014.6 6.0 NNE 14.5 NE 0.0 0.0
20:10 6.8 90.9 1014.6 7.4 NNE 16.6 NE 0.0 0.0
20:15 6.8 91.0 1014.7 7.4 NNE 18.8 NE 0.0 0.2
20:20 6.8 91.1 1014.7 8.0 NNE 14.8 NE 0.0 0.7
20:25 6.8 91.0 1014.7 6.3 NNE 12.9 ENE 0.0 0.9
20:30 6.8 91.0 1014.8 5.7 NNE 10.9 NNE 0.0 1.0
20:35 6.8 90.8 1014.7 7.7 NNE 14.9 NE 0.0 1.2
20:40 6.8 90.7 1014.7 6.4 NNE 14.5 NE 0.0 1.2
20:45 6.8 90.5 1014.7 8.5 NNE 18.1 NE 0.0 1.3
20:50 6.9 90.2 1014.7 6.8 NNE 15.8 NE 0.0 1.4
20:55 6.9 89.9 1014.7 6.7 NNE 15.3 ENE 0.0 1.7
21:00 6.9 89.7 1014.7 8.7 NNE 17.9 NE 0.0 2.0
21:05 6.9 89.4 1014.8 7.8 NNE 16.4 NE 0.0 2.1
21:10 6.9 89.2 1014.8 6.2 NNE 13.0 NE 0.0 1.8
21:15 6.9 88.9 1014.8 6.7 NNE 18.5 NNE 0.0 1.8
21:20 6.9 88.6 1014.8 6.1 NNE 13.5 NE 0.0 1.8
21:25 6.9 88.4 1014.9 6.0 NNE 11.2 ENE 0.0 1.7
21:30 6.9 88.4 1014.9 4.7 NNE 13.2 NE 0.0 1.7
21:35 6.9 88.6 1014.9 6.7 NNE 13.3 NNE 0.0 1.6
21:40 6.9 88.8 1014.8 6.9 NNE 15.1 NE 0.0 1.9
21:45 6.9 88.5 1014.8 6.8 NNE 15.7 NE 0.0 2.1
21:50 6.9 88.3 1014.8 5.3 NNE 13.4 NNE 0.0 1.8
21:55 6.9 88.4 1014.8 4.1 NE 9.3 NNE 0.0 1.7
22:00 6.9 88.3 1014.8 5.0 NE 12.7 NE 0.0 1.5
22:05 6.9 88.3 1014.8 4.9 NNE 13.8 N 0.0 1.6
22:10 7.0 88.4 1014.8 4.5 NNE 10.4 NNE 0.0 1.5
22:15 7.0 88.8 1014.8 5.7 NNE 10.5 NE 0.0 1.4
22:20 7.0 89.0 1014.8 4.4 NNE 9.0 NNE 0.0 1.3
22:25 7.0 89.2 1014.9 6.0 NNE 11.4 N 0.0 1.3
22:30 7.0 89.3 1014.8 6.3 NNE 10.9 N 0.0 1.3
22:35 7.0 89.5 1014.8 4.1 NNE 8.5 N 0.0 1.2
22:40 6.9 89.5 1014.8 2.7 NNE 4.0 NNE 0.0 0.9
22:45 6.9 89.6 1014.8 2.6 NNE 4.2 N 0.0 0.7
22:50 6.9 89.8 1014.8 1.3 E 3.9 N 0.0 0.6
22:55 6.9 90.4 1014.8 2.3 NNE 4.5 ESE 0.0 0.4
23:00 6.9 90.8 1014.8 2.5 E 8.1 NNE 0.0 0.3
23:05 7.0 91.0 1014.7 2.8 NE 8.1 NE 0.0 0.4
23:10 7.0 91.0 1014.7 3.7 NNE 8.4 NE 0.0 0.4
23:15 7.1 90.9 1014.6 4.6 NNE 10.2 NE 0.0 0.4
Màxima 10.1 93.8 1014.9 9.1 NNE 24.9 ENE 0.1 244.7
Mínima 4.7 73.5 1012.0
Total 0.2